Time;durP1;ratioP1;P1;durP2;ratioP2;P2;SDS_P1;SDS_P2;PMS_P1;PMS_P2;Temp;Humidity;BMP_temperature;BMP_pressure;BME280_temperature;BME280_humidity;BME280_pressure;Samples;Min_cycle;Max_cycle;Signal;HPM_P1;HPM_P2
2022/10/02 00:02:18;;;;;;;0.80;0.80;;;15.80;99.90;;;;;;6151243;23;20008;-80
2022/10/02 00:04:54;;;;;;;1.83;0.80;;;;;;;;;;6150968;23;20009;-80
2022/10/02 00:07:48;;;;;;;1.98;0.98;;;15.70;99.90;;;;;;6151024;23;20025;-80
2022/10/02 00:10:20;;;;;;;0.55;0.55;;;15.80;99.90;;;;;;6151112;23;20436;-80
2022/10/02 00:12:50;;;;;;;0.57;0.57;;;15.80;99.90;;;;;;6151146;23;20036;-79
2022/10/02 00:15:18;;;;;;;1.27;1.17;;;;;;;;;;6150724;23;20004;-80
2022/10/02 00:17:46;;;;;;;0.77;0.77;;;15.50;99.90;;;;;;6151518;23;20088;-80
2022/10/02 00:20:14;;;;;;;0.70;0.70;;;15.40;99.90;;;;;;6151362;23;20002;-79
2022/10/02 00:23:04;;;;;;;0.80;0.80;;;15.30;99.90;;;;;;6150980;23;20009;-79
2022/10/02 00:25:30;;;;;;;0.70;0.70;;;;;;;;;;6151114;23;20001;-79
2022/10/02 00:28:26;;;;;;;0.68;0.68;;;15.10;99.90;;;;;;6151006;23;20440;-80
2022/10/02 00:31:27;;;;;;;0.77;0.73;;;15.00;99.90;;;;;;6150906;23;20588;-80
2022/10/02 00:34:20;;;;;;;0.80;0.80;;;14.90;99.90;;;;;;6151068;23;20330;-79
2022/10/02 00:36:52;;;;;;;0.55;0.55;;;15.00;99.90;;;;;;6150855;23;20010;-80
2022/10/02 00:39:18;;;;;;;0.80;0.80;;;;;;;;;;6152642;23;20033;-79
2022/10/02 00:41:44;;;;;;;0.93;0.85;;;;;;;;;;6152892;23;20013;-79
2022/10/02 00:44:47;;;;;;;1.17;0.60;;;15.20;99.90;;;;;;6152241;23;20064;-80
2022/10/02 00:47:26;;;;;;;0.73;0.50;;;15.10;99.90;;;;;;6151598;23;20008;-79
2022/10/02 00:50:18;;;;;;;3.45;0.73;;;15.20;99.90;;;;;;6152799;23;20017;-80
2022/10/02 00:53:08;;;;;;;0.63;0.63;;;15.20;99.90;;;;;;6152484;23;20017;-79
2022/10/02 00:55:46;;;;;;;2.85;0.50;;;;;;;;;;6152993;23;20012;-80
2022/10/02 00:58:32;;;;;;;0.93;0.50;;;15.20;99.90;;;;;;6152577;23;20025;-79
2022/10/02 01:01:16;;;;;;;1.42;0.60;;;15.20;99.90;;;;;;6152339;23;20001;-80
2022/10/02 01:03:45;;;;;;;0.40;0.40;;;15.20;99.90;;;;;;6152774;23;20080;-80
2022/10/02 01:06:11;;;;;;;0.60;0.52;;;;;;;;;;6152085;23;20001;-80
2022/10/02 01:08:37;;;;;;;2.65;0.73;;;;;;;;;;6150741;23;20422;-80
2022/10/02 01:11:05;;;;;;;1.15;0.52;;;15.30;99.90;;;;;;6152439;23;20080;-80
2022/10/02 01:13:31;;;;;;;;;;;15.30;99.90;;;;;;6153094;23;20017;-80
2022/10/02 01:16:01;;;;;;;0.77;0.50;;;15.30;99.90;;;;;;6151425;23;19905;-80
2022/10/02 01:18:28;;;;;;;0.95;0.60;;;15.30;99.90;;;;;;6152556;23;20041;-80
2022/10/02 01:21:07;;;;;;;0.80;0.70;;;15.10;99.90;;;;;;6152259;23;20040;-80
2022/10/02 01:23:35;;;;;;;0.77;0.68;;;;;;;;;;6152699;23;20010;-80
2022/10/02 01:26:02;;;;;;;3.05;0.73;;;;;;;;;;6152271;23;20001;-79
2022/10/02 01:28:28;;;;;;;0.65;0.63;;;;;;;;;;6152260;23;20002;-79
2022/10/02 01:31:00;;;;;;;0.40;0.40;;;15.30;99.90;;;;;;6151787;23;20428;-80
2022/10/02 01:33:26;;;;;;;0.85;0.50;;;;;;;;;;6152551;23;20057;-80
2022/10/02 01:35:52;;;;;;;0.70;0.70;;;;;;;;;;6152000;23;20009;-80
2022/10/02 01:38:21;;;;;;;0.40;0.40;;;15.30;99.90;;;;;;6152260;23;20476;-79
2022/10/02 01:40:48;;;;;;;4.45;0.60;;;;;;;;;;6152260;23;20001;-80
2022/10/02 01:43:16;;;;;;;0.77;0.70;;;;;;;;;;6152050;23;20441;-79
2022/10/02 01:45:42;;;;;;;1.23;1.10;;;;;;;;;;6151211;23;20568;-80
2022/10/02 01:48:32;;;;;;;0.55;0.55;;;15.10;99.90;;;;;;6152126;23;20033;-79
2022/10/02 01:51:16;;;;;;;0.60;0.57;;;15.10;99.90;;;;;;6151749;23;20356;-80
2022/10/02 01:53:45;;;;;;;1.33;0.88;;;15.10;99.90;;;;;;6152378;23;20021;-80
2022/10/02 01:56:43;;;;;;;1.08;0.93;;;15.10;99.90;;;;;;6151930;23;20421;-80
2022/10/02 01:59:28;;;;;;;1.25;1.10;;;;;;;;;;6152307;23;20009;-80
2022/10/02 02:02:18;;;;;;;0.93;0.90;;;14.70;99.90;;;;;;6151850;23;20006;-79
2022/10/02 02:04:56;;;;;;;2.08;0.93;;;15.60;99.90;;;;;;6152060;23;20001;-79
2022/10/02 02:07:49;;;;;;;0.75;0.68;;;15.30;99.90;;;;;;6151997;23;20013;-79
2022/10/02 02:10:51;;;;;;;0.60;0.50;;;15.30;99.90;;;;;;6152024;23;20096;-79
2022/10/02 02:13:34;;;;;;;0.77;0.40;;;15.30;99.90;;;;;;6090064;23;20453;-79
2022/10/02 02:16:17;;;;;;;0.57;0.57;;;15.30;99.90;;;;;;6089712;23;20006;-81
2022/10/02 02:19:07;;;;;;;3.13;0.55;;;15.30;99.90;;;;;;6090474;23;20014;-79
2022/10/02 02:21:37;;;;;;;0.85;0.40;;;15.40;99.90;;;;;;6090256;23;20078;-80
2022/10/02 02:24:09;;;;;;;2.58;0.52;;;15.30;99.90;;;;;;6089973;23;20006;-79
2022/10/02 02:26:35;;;;;;;0.50;0.50;;;;;;;;;;6090467;23;20369;-80
2022/10/02 02:29:04;;;;;;;0.95;0.60;;;15.30;99.90;;;;;;6090103;23;20029;-79
2022/10/02 02:31:38;;;;;;;0.70;0.70;;;15.20;99.90;;;;;;6089990;23;20510;-79
2022/10/02 02:34:10;;;;;;;3.28;1.02;;;15.20;99.90;;;;;;6089985;23;20042;-79
2022/10/02 02:36:39;;;;;;;0.60;0.60;;;15.20;99.90;;;;;;6089704;23;20014;-80
2022/10/02 02:39:18;;;;;;;0.77;0.70;;;15.00;99.90;;;;;;6065842;23;20029;-79
2022/10/02 02:41:47;;;;;;;0.50;0.50;;;;;;;;;;6090189;23;20006;-79
2022/10/02 02:44:29;;;;;;;0.80;0.60;;;15.20;99.90;;;;;;6089256;23;20407;-79
2022/10/02 02:47:03;;;;;;;1.35;0.93;;;15.20;99.90;;;;;;6089823;23;20077;-80
2022/10/02 02:49:37;;;;;;;1.50;0.60;;;15.20;99.90;;;;;;6137516;23;20033;-80
2022/10/02 02:52:06;;;;;;;1.13;0.80;;;15.20;99.90;;;;;;6149703;23;20364;-79
2022/10/02 02:54:53;;;;;;;0.75;0.63;;;15.20;99.90;;;;;;6151730;23;20002;-80
2022/10/02 02:57:27;;;;;;;1.10;0.80;;;15.10;99.90;;;;;;6151336;23;20088;-79
2022/10/02 02:59:56;;;;;;;1.70;1.15;;;15.10;99.90;;;;;;6151687;23;20096;-78
2022/10/02 03:02:22;;;;;;;1.55;1.00;;;;;;;;;;6151627;23;20088;-80
2022/10/02 03:04:48;;;;;;;1.88;1.10;;;;;;;;;;6151899;23;20037;-79
2022/10/02 03:07:14;;;;;;;0.98;0.65;;;;;;;;;;6151348;23;20059;-79
2022/10/02 03:09:46;;;;;;;1.17;0.60;;;15.10;99.90;;;;;;6151525;23;20006;-80
2022/10/02 03:12:24;;;;;;;0.70;0.70;;;15.10;99.90;;;;;;6149149;23;20355;-79
2022/10/02 03:15:14;;;;;;;0.40;0.40;;;15.00;99.90;;;;;;6150732;23;20452;-80
2022/10/02 03:17:43;;;;;;;0.60;0.60;;;;;;;;;;6151886;23;20009;-79
2022/10/02 03:20:13;;;;;;;1.10;0.60;;;15.00;99.90;;;;;;6151160;23;20084;-79
2022/10/02 03:22:40;;;;;;;3.25;0.40;;;;;;;;;;6151210;23;20010;-79
2022/10/02 03:25:06;;;;;;;1.40;0.80;;;;;;;;;;6151276;23;20052;-80
2022/10/02 03:27:37;;;;;;;0.63;0.60;;;14.60;99.90;;;;;;6150992;23;20018;-80
2022/10/02 03:30:08;;;;;;;0.60;0.52;;;14.80;99.90;;;;;;6151200;23;19997;-80
2022/10/02 03:32:36;;;;;;;3.22;0.98;;;14.80;99.90;;;;;;6151088;23;20083;-80
2022/10/02 03:35:03;;;;;;;0.70;0.70;;;;;;;;;;6151529;23;20009;-80
2022/10/02 03:37:30;;;;;;;0.82;0.60;;;;;;;;;;6151481;23;20009;-79
2022/10/02 03:40:04;;;;;;;0.50;0.30;;;14.80;99.90;;;;;;6150972;23;20025;-80
2022/10/02 03:42:32;;;;;;;0.80;0.52;;;14.80;99.90;;;;;;6151000;23;20005;-80
2022/10/02 03:44:58;;;;;;;0.57;0.50;;;;;;;;;;6150814;23;20005;-79
2022/10/02 03:47:24;;;;;;;0.50;0.50;;;;;;;;;;6149327;23;20005;-79
2022/10/02 03:49:50;;;;;;;0.40;0.40;;;;;;;;;;6151340;23;20012;-79
2022/10/02 03:52:17;;;;;;;0.50;0.45;;;;;;;;;;6151390;23;20010;-79
2022/10/02 03:54:44;;;;;;;0.57;0.57;;;;;;;;;;6151121;23;19998;-80
2022/10/02 03:57:16;;;;;;;0.77;0.73;;;14.80;99.90;;;;;;6150744;23;20089;-80
2022/10/02 04:00:07;;;;;;;0.85;0.73;;;14.80;99.90;;;;;;6149697;23;20044;-79
2022/10/02 04:02:56;;;;;;;1.40;0.95;;;15.00;99.90;;;;;;6151202;23;20030;-80
2022/10/02 04:05:44;;;;;;;1.48;1.38;;;14.80;99.90;;;;;;6151178;23;20013;-79
2022/10/02 04:08:57;;;;;;;0.50;0.50;;;14.80;99.90;;;;;;6151236;23;20010;-79
2022/10/02 04:11:37;;;;;;;0.90;0.65;;;14.60;99.90;;;;;;6137055;23;20013;-79
2022/10/02 04:14:33;;;;;;;0.68;0.50;;;14.60;99.90;;;;;;6152561;23;20006;-79
2022/10/02 04:17:07;;;;;;;0.40;0.40;;;;;;;;;;6152469;23;20005;-80
2022/10/02 04:19:45;;;;;;;4.82;0.68;;;14.70;99.90;;;;;;6153077;23;20008;-80
2022/10/02 04:22:35;;;;;;;0.50;0.50;;;14.80;99.90;;;;;;6153182;23;20467;-80
2022/10/02 04:25:01;;;;;;;0.50;0.50;;;;;;;;;;6152931;23;20005;-80
2022/10/02 04:27:46;;;;;;;0.40;0.40;;;14.70;99.90;;;;;;6152859;23;20421;-80
2022/10/02 04:30:17;;;;;;;1.13;0.75;;;14.60;99.90;;;;;;6153045;23;20445;-80
2022/10/02 04:32:43;;;;;;;0.70;0.68;;;;;;;;;;6152874;23;20353;-79
2022/10/02 04:35:51;;;;;;;0.60;0.60;;;14.30;99.90;;;;;;6152718;23;20001;-79
2022/10/02 04:38:54;;;;;;;0.60;0.60;;;14.40;99.90;;;;;;6152671;23;20072;-80
2022/10/02 04:41:45;;;;;;;0.63;0.63;;;14.40;99.90;;;;;;6153055;23;20064;-79
2022/10/02 04:44:37;;;;;;;0.68;0.68;;;14.50;99.90;;;;;;6152302;23;20008;-79
2022/10/02 04:47:19;;;;;;;0.50;0.50;;;14.20;99.90;;;;;;6152899;23;20109;-80
2022/10/02 04:49:48;;;;;;;0.50;0.50;;;;;;;;;;6152667;23;20005;-79
2022/10/02 04:52:44;;;;;;;0.57;0.57;;;14.50;99.90;;;;;;6152745;23;20037;-79
2022/10/02 04:56:06;;;;;;;7.80;0.60;;;14.50;99.90;;;;;;6152439;23;20005;-79
2022/10/02 04:58:45;;;;;;;0.63;0.45;;;14.50;99.90;;;;;;6090865;23;20076;-79
2022/10/02 05:01:22;;;;;;;1.00;1.00;;;14.60;99.90;;;;;;6090798;23;20022;-79
2022/10/02 05:03:48;;;;;;;1.05;0.82;;;;;;;;;;6090720;23;20118;-78
2022/10/02 05:06:26;;;;;;;1.08;0.73;;;14.60;99.90;;;;;;6090737;23;20422;-79
2022/10/02 05:09:29;;;;;;;1.17;0.93;;;14.50;99.90;;;;;;6090496;23;20514;-79
2022/10/02 05:11:55;;;;;;;0.63;0.63;;;;;;;;;;6090640;23;20026;-79
2022/10/02 05:14:21;;;;;;;1.05;0.70;;;;;;;;;;6090222;23;20026;-79
2022/10/02 05:17:05;;;;;;;0.73;0.73;;;14.70;99.90;;;;;;6090707;23;20018;-79
2022/10/02 05:19:39;;;;;;;0.60;0.60;;;14.80;99.90;;;;;;6090716;23;20006;-80
2022/10/02 05:22:25;;;;;;;8.40;0.60;;;14.70;99.90;;;;;;6090392;23;20018;-79
2022/10/02 05:25:10;;;;;;;1.15;0.70;;;14.60;99.90;;;;;;6089863;23;20002;-80
2022/10/02 05:27:38;;;;;;;0.68;0.68;;;14.60;99.90;;;;;;6090576;23;20006;-78
2022/10/02 05:30:12;;;;;;;4.45;0.77;;;14.70;99.90;;;;;;6148057;23;20010;-79
2022/10/02 05:32:50;;;;;;;0.75;0.75;;;14.50;99.90;;;;;;6152250;23;20009;-79
2022/10/02 05:35:15;;;;;;;0.75;0.70;;;;;;;;;;6152631;23;20101;-80
2022/10/02 05:38:04;;;;;;;1.60;0.80;;;14.80;99.90;;;;;;6152113;23;20448;-80
2022/10/02 05:40:34;;;;;;;1.20;0.80;;;14.70;99.90;;;;;;6152667;23;20377;-79
2022/10/02 05:43:13;;;;;;;0.60;0.60;;;14.50;99.90;;;;;;6152496;23;20009;-79
2022/10/02 05:45:46;;;;;;;0.82;0.80;;;14.80;99.90;;;;;;6152360;23;20009;-78
2022/10/02 05:48:17;;;;;;;8.80;1.35;;;14.80;99.90;;;;;;6152784;23;20005;-79
2022/10/02 05:50:44;;;;;;;4.32;0.82;;;;;;;;;;6152109;23;20100;-79
2022/10/02 05:53:19;;;;;;;;;;;14.90;99.90;;;;;;6152686;23;20013;-79
2022/10/02 05:55:57;;;;;;;0.55;0.55;;;14.90;99.90;;;;;;6152372;23;19979;-79
2022/10/02 05:58:26;;;;;;;0.82;0.68;;;;;;;;;;6152039;23;20013;-79
2022/10/02 06:01:24;;;;;;;0.40;0.40;;;15.20;99.90;;;;;;6152288;23;20001;-80
2022/10/02 06:04:06;;;;;;;2.85;0.57;;;15.30;99.90;;;;;;6143522;23;20033;-79
2022/10/02 06:06:43;;;;;;;1.30;1.23;;;15.30;99.90;;;;;;6151610;23;20774;-79
2022/10/02 06:09:09;;;;;;;2.15;0.90;;;;;;;;;;6151928;23;20422;-79
2022/10/02 06:11:56;;;;;;;1.92;1.00;;;15.20;99.90;;;;;;6151987;23;20009;-79
2022/10/02 06:14:44;;;;;;;1.67;0.70;;;15.20;99.90;;;;;;6151701;23;20009;-80
2022/10/02 06:17:31;;;;;;;3.60;0.90;;;15.00;99.90;;;;;;6141522;23;20012;-79
2022/10/02 06:20:06;;;;;;;3.92;0.90;;;;;;;;;;6150916;23;20093;-79
2022/10/02 06:22:40;;;;;;;7.53;1.35;;;15.20;99.90;;;;;;6150819;23;20009;-78
2022/10/02 06:25:15;;;;;;;4.45;1.30;;;15.20;99.90;;;;;;6150970;23;20005;-79
2022/10/02 06:28:03;;;;;;;1.25;1.02;;;15.30;99.90;;;;;;6151307;23;20453;-79
2022/10/02 06:30:32;;;;;;;1.98;1.00;;;15.30;99.90;;;;;;6151187;23;20065;-79
2022/10/02 06:33:01;;;;;;;1.88;1.15;;;;;;;;;;6151215;23;20024;-79
2022/10/02 06:35:51;;;;;;;1.85;1.13;;;15.30;99.90;;;;;;6150535;23;20005;-79
2022/10/02 06:38:29;;;;;;;1.17;1.08;;;15.40;99.90;;;;;;6151296;23;20038;-77
2022/10/02 06:41:36;;;;;;;2.05;0.88;;;15.30;99.90;;;;;;6146275;23;20388;-80
2022/10/02 06:44:23;;;;;;;2.63;0.68;;;17.50;99.90;;;;;;6149340;23;20475;-79
2022/10/02 06:47:02;;;;;;;1.02;0.68;;;15.60;99.90;;;;;;6149075;23;20015;-81
2022/10/02 06:50:00;;;;;;;1.70;1.10;;;15.60;99.90;;;;;;6148441;23;20042;-81
2022/10/02 06:52:26;;;;;;;0.73;0.73;;;;;;;;;;6086841;23;20018;-79
2022/10/02 06:54:52;;;;;;;1.08;0.70;;;;;;;;;;6087127;23;20006;-79
2022/10/02 06:57:32;;;;;;;0.70;0.70;;;;;;;;;;6087811;23;20489;-79
2022/10/02 07:00:11;;;;;;;2.95;1.20;;;;;;;;;;6087479;23;20203;-80
2022/10/02 07:02:56;;;;;;;2.58;1.02;;;;;;;;;;6086678;23;20014;-81
2022/10/02 07:05:41;;;;;;;1.65;0.95;;;16.20;99.90;;;;;;6086285;23;20458;-81
2022/10/02 07:08:23;;;;;;;2.47;1.58;;;16.20;99.90;;;;;;6053185;23;20011;-81
2022/10/02 07:11:14;;;;;;;1.55;0.98;;;16.40;99.90;;;;;;6086851;23;20021;-80
2022/10/02 07:13:46;;;;;;;3.28;1.60;;;;;;;;;;6080277;23;20022;-81
2022/10/02 07:16:38;;;;;;;3.78;1.65;;;16.50;99.90;;;;;;6085779;23;20006;-81
2022/10/02 07:19:35;;;;;;;2.42;0.82;;;16.70;99.90;;;;;;6085869;23;20006;-81
2022/10/02 07:22:38;;;;;;;1.25;1.10;;;16.80;99.90;;;;;;6086704;23;20006;-81
2022/10/02 07:25:32;;;;;;;2.35;0.93;;;16.80;99.90;;;;;;6086871;23;20477;-84
2022/10/02 07:28:36;;;;;;;2.55;0.80;;;16.80;99.90;;;;;;6086928;23;20021;-81
2022/10/02 07:31:05;;;;;;;0.82;0.80;;;;;;;;;;6148275;23;20009;-81
2022/10/02 07:33:52;;;;;;;10.02;1.15;;;;;;;;;;6148599;23;20010;-82
2022/10/02 07:36:28;;;;;;;0.73;0.70;;;;;;;;;;6149497;23;20037;-82
2022/10/02 07:38:56;;;;;;;5.93;0.82;;;;;;;;;;6148724;23;20468;-82
2022/10/02 07:41:45;;;;;;;17.25;5.13;;;18.10;99.90;;;;;;6148936;23;20464;-81
2022/10/02 07:44:11;;;;;;;10.93;2.97;;;;;;;;;;6149512;23;20012;-81
2022/10/02 07:46:49;;;;;;;7.22;2.05;;;20.60;99.90;;;;;;6149206;23;20013;-81
2022/10/02 07:49:14;;;;;;;;;;;20.80;99.90;;;;;;6151573;23;20006;-82
2022/10/02 07:51:56;;;;;;;17.77;2.65;;;21.30;99.90;;;;;;6151382;23;19916;-83
2022/10/02 07:54:37;;;;;;;8.05;1.63;;;21.60;99.90;;;;;;6151218;23;20006;-86
2022/10/02 07:57:16;;;;;;;8.90;1.77;;;21.30;99.90;;;;;;6149294;23;20017;-81
2022/10/02 07:59:43;;;;;;;9.85;3.72;;;;;;;;;;6150497;23;20445;-82
2022/10/02 08:02:19;;;;;;;0.80;0.40;;;;;;;;;;6150378;23;20005;-82
2022/10/02 08:04:46;;;;;;;4.78;0.77;;;;;;;;;;6150706;23;20040;-82
2022/10/02 08:07:12;;;;;;;2.27;0.77;;;;;;;;;;6151006;23;20009;-81
2022/10/02 08:09:48;;;;;;;10.70;1.83;;;;;;;;;;6150330;23;20010;-82
2022/10/02 08:12:14;;;;;;;4.85;1.17;;;;;;;;;;6151097;23;20013;-82
2022/10/02 08:14:42;;;;;;;2.10;0.95;;;26.80;94.60;;;;;;6150285;23;20080;-83
2022/10/02 08:17:39;;;;;;;1.83;0.50;;;32.10;70.20;;;;;;6149294;23;20037;-82
2022/10/02 08:20:29;;;;;;;1.95;0.65;;;35.60;62.40;;;;;;6141796;23;20441;-82
2022/10/02 08:23:23;;;;;;;8.15;2.15;;;37.80;51.70;;;;;;6149015;23;20005;-82
2022/10/02 08:25:52;;;;;;;2.88;1.33;;;;;;;;;;6145079;23;20010;-81
2022/10/02 08:28:21;;;;;;;28.48;4.28;;;39.60;49.90;;;;;;6151332;23;20017;-82
2022/10/02 08:30:47;;;;;;;8.25;1.75;;;;;;;;;;6150181;23;20005;-82
2022/10/02 08:33:17;;;;;;;20.67;4.40;;;44.40;44.70;;;;;;6151146;23;20081;-82
2022/10/02 08:36:15;;;;;;;4.85;1.40;;;46.60;36.80;;;;;;6150617;23;20025;-82
2022/10/02 08:38:51;;;;;;;24.92;7.30;;;48.20;37.70;;;;;;6149473;23;20461;-82
2022/10/02 08:41:23;;;;;;;6.20;2.40;;;;;;;;;;6150260;23;20456;-83
2022/10/02 08:44:13;;;;;;;26.90;8.68;;;50.50;36.20;;;;;;6149371;23;20010;-83
2022/10/02 08:46:39;;;;;;;17.30;6.30;;;;;;;;;;6149094;23;20459;-83
2022/10/02 08:49:10;;;;;;;16.98;5.93;;;;;;;;;;6150613;23;20077;-83
2022/10/02 08:51:44;;;;;;;5.78;1.40;;;;;;;;;;6151064;23;20001;-82
2022/10/02 08:54:44;;;;;;;12.00;4.10;;;51.10;32.70;;;;;;6150438;23;20001;-83
2022/10/02 08:57:48;;;;;;;43.90;7.10;;;48.90;32.80;;;;;;6150926;23;20013;-83
2022/10/02 09:00:58;;;;;;;6.75;2.10;;;47.10;34.00;;;;;;6149680;23;20009;-83
2022/10/02 09:03:24;;;;;;;3.45;0.95;;;;;;;;;;6088667;23;20399;-83
2022/10/02 09:06:26;;;;;;;1.55;0.50;;;47.70;31.70;;;;;;6087935;23;20006;-83
2022/10/02 09:09:20;;;;;;;7.03;2.38;;;48.20;30.80;;;;;;6087653;23;20037;-83
2022/10/02 09:12:22;;;;;;;12.90;5.28;;;48.70;35.60;;;;;;6088450;23;20104;-89
2022/10/02 09:15:24;;;;;;;11.55;3.05;;;45.30;30.90;;;;;;6087614;23;20006;-89
2022/10/02 09:18:26;;;;;;;6.35;1.73;;;45.10;31.90;;;;;;6064248;23;20006;-86
2022/10/02 09:21:01;;;;;;;4.50;0.98;;;46.30;35.50;;;;;;6088485;23;20006;-86
2022/10/02 09:23:51;;;;;;;1.30;0.40;;;47.30;29.70;;;;;;6088117;23;20014;-85
2022/10/02 09:26:32;;;;;;;13.75;2.63;;;48.00;29.70;;;;;;6088488;23;20033;-86
2022/10/02 09:29:33;;;;;;;3.50;1.15;;;47.80;33.30;;;;;;6088792;23;20010;-87
2022/10/02 09:32:20;;;;;;;0.80;0.77;;;48.10;32.80;;;;;;6088333;23;20449;-87
2022/10/02 09:34:49;;;;;;;8.48;2.75;;;48.90;30.20;;;;;;6086955;23;20010;-86
2022/10/02 09:37:55;;;;;;;3.50;1.40;;;49.50;28.70;;;;;;6112724;23;20445;-86
2022/10/02 09:40:31;;;;;;;4.85;1.67;;;49.60;32.40;;;;;;6149991;23;20016;-82
2022/10/02 09:43:04;;;;;;;8.05;2.67;;;49.30;32.30;;;;;;6150054;23;20018;-82
2022/10/02 09:45:52;;;;;;;2.33;0.95;;;47.30;33.30;;;;;;6149295;23;20055;-82
2022/10/02 09:48:23;;;;;;;3.05;0.70;;;45.80;29.10;;;;;;6150564;23;20013;-83
2022/10/02 09:50:52;;;;;;;0.65;0.15;;;45.10;31.90;;;;;;6150070;23;20034;-82
2022/10/02 09:53:50;;;;;;;3.03;0.63;;;41.60;30.60;;;;;;6150206;23;20418;-83
2022/10/02 09:56:29;;;;;;;2.78;0.93;;;37.80;33.50;;;;;;6150151;23;20033;-85
2022/10/02 09:59:16;;;;;;;2.55;0.28;;;34.80;44.40;;;;;;6149148;23;20022;-83
2022/10/02 10:02:39;;;;;;;3.55;0.30;;;32.00;38.60;;;;;;6149476;23;20017;-83
2022/10/02 10:05:25;;;;;;;0.57;0.17;;;29.40;41.40;;;;;;6087640;23;20413;-84
2022/10/02 10:08:28;;;;;;;0.15;0.10;;;28.00;43.40;;;;;;6088081;23;20014;-87
2022/10/02 10:11:00;;;;;;;1.23;0.40;;;;;;;;;;6087685;23;20038;-86
2022/10/02 10:13:49;;;;;;;1.00;0.50;;;33.80;39.20;;;;;;6088525;23;20010;-87
2022/10/02 10:16:45;;;;;;;0.00;0.00;;;37.60;41.40;;;;;;6088354;23;20010;-89
2022/10/02 10:19:43;;;;;;;0.10;0.08;;;37.20;41.70;;;;;;6090072;23;20022;-89
2022/10/02 10:22:37;;;;;;;2.80;0.70;;;37.60;33.80;;;;;;6086995;23;20101;-87
2022/10/02 10:25:36;;;;;;;0.82;0.30;;;38.80;41.30;;;;;;6062601;23;20009;-87
2022/10/02 10:28:07;;;;;;;0.63;0.20;;;41.90;37.90;;;;;;6086657;23;20030;-87
2022/10/02 10:31:18;;;;;;;0.05;0.05;;;43.70;35.90;;;;;;6062215;23;20073;-87
2022/10/02 10:34:03;;;;;;;0.38;0.10;;;45.50;34.00;;;;;;6086994;23;20010;-88
2022/10/02 10:40:12;;;;;;;0.30;0.20;;;46.30;28.90;;;;;;6149980;23;20088;-87
2022/10/02 10:43:06;;;;;;;0.20;0.00;;;47.10;32.80;;;;;;6139000;23;20021;-88
2022/10/02 10:46:06;;;;;;;0.00;0.00;;;47.10;31.60;;;;;;6149817;23;20006;-88
2022/10/02 10:48:55;;;;;;;0.10;0.00;;;46.60;31.20;;;;;;6149091;23;20345;-90
2022/10/02 10:51:31;;;;;;;0.43;0.10;;;46.30;26.60;;;;;;6152133;23;20009;-91
2022/10/02 10:54:10;;;;;;;0.00;0.00;;;;;;;;;;6153739;23;20404;-91
2022/10/02 10:56:39;;;;;;;2.10;0.00;;;;;;;;;;6151932;23;20384;-93
2022/10/02 11:07:14;;;;;;;0.22;0.20;;;;;;;;;;6114528;23;20017;-95
2022/10/02 11:10:09;;;;;;;0.10;0.00;;;46.20;25.60;;;;;;6169547;23;20096;-93
2022/10/02 11:12:40;;;;;;;;;;;45.80;25.90;;;;;;6152884;23;20020;-89
2022/10/02 11:15:11;;;;;;;0.25;0.05;;;;;;;;;;6150953;23;19907;-88
2022/10/02 11:17:55;;;;;;;0.00;0.00;;;43.90;29.50;;;;;;6151222;23;20012;-89
2022/10/02 11:20:30;;;;;;;0.10;0.00;;;43.40;27.40;;;;;;6149472;23;20005;-88
2022/10/02 11:23:01;;;;;;;0.30;0.20;;;42.40;28.00;;;;;;6149952;23;20017;-89
2022/10/02 11:25:30;;;;;;;1.48;0.15;;;;;;;;;;6148960;23;20349;-88
2022/10/02 11:28:25;;;;;;;0.10;0.00;;;38.80;30.20;;;;;;6151645;23;20012;-95
2022/10/02 11:30:56;;;;;;;0.00;0.00;;;37.00;39.10;;;;;;6158637;23;20064;-95
2022/10/02 11:33:40;;;;;;;0.20;0.10;;;35.50;39.60;;;;;;6158459;23;20005;-94
2022/10/02 11:36:08;;;;;;;0.00;0.00;;;;;;;;;;6167423;23;20006;-95
2022/10/02 11:39:07;;;;;;;0.20;0.10;;;30.10;44.50;;;;;;6158279;23;20005;-96
2022/10/02 11:42:10;;;;;;;0.10;0.10;;;28.50;50.30;;;;;;6154733;23;20014;-94
2022/10/02 11:44:36;;;;;;;0.57;0.20;;;;;;;;;;6151120;23;20040;-90
2022/10/02 11:47:19;;;;;;;0.32;0.20;;;29.50;39.00;;;;;;6150685;23;20010;-91
2022/10/02 11:50:16;;;;;;;0.20;0.20;;;29.60;49.30;;;;;;6157201;23;20002;-93
2022/10/02 11:52:44;;;;;;;;;;;29.50;39.60;;;;;;6154603;23;20445;-95
2022/10/02 11:55:13;;;;;;;0.43;0.30;;;29.10;50.00;;;;;;6154213;23;19905;-94
2022/10/02 11:57:49;;;;;;;0.30;0.30;;;;;;;;;;6146255;23;20034;-91
2022/10/02 12:05:45;;;;;;;0.22;0.20;;;;;;;;;;6129441;23;20488;-94
2022/10/02 12:08:14;;;;;;;0.20;0.20;;;;;;;;;;6154412;23;20017;-93
2022/10/02 12:11:00;;;;;;;0.52;0.25;;;;;;;;;;6154850;23;20013;-96
2022/10/02 12:13:35;;;;;;;0.20;0.20;;;;;;;;;;6154151;23;20037;-95
2022/10/02 12:16:14;;;;;;;0.47;0.30;;;;;;;;;;6152822;23;20006;-96
2022/10/02 12:18:52;;;;;;;0.20;0.20;;;;;;;;;;6152650;23;20033;-94
2022/10/02 12:27:57;;;;;;;1.48;0.30;;;25.70;47.40;;;;;;6152777;23;20021;-94
2022/10/02 12:30:50;;;;;;;0.73;0.40;;;25.50;48.10;;;;;;6154157;23;20006;-93
2022/10/02 12:33:40;;;;;;;0.22;0.22;;;25.30;48.90;;;;;;6131597;23;20084;-94
2022/10/02 12:36:09;;;;;;;1.02;0.40;;;;;;;;;;6154008;23;20083;-95
2022/10/02 12:38:35;;;;;;;0.35;0.30;;;;;;;;;;6155182;23;20006;-90
2022/10/02 12:41:07;;;;;;;0.30;0.30;;;;;;;;;;6155117;23;20437;-93
2022/10/02 12:43:39;;;;;;;0.47;0.40;;;;;;;;;;6155044;23;20006;-94
2022/10/02 12:46:26;;;;;;;1.10;0.70;;;26.80;46.50;;;;;;6153517;23;20667;-92
2022/10/02 12:49:28;;;;;;;0.68;0.47;;;26.60;45.90;;;;;;6140794;23;20068;-93
2022/10/02 12:51:54;;;;;;;0.30;0.30;;;;;;;;;;6064699;23;20007;-93
2022/10/02 12:54:37;;;;;;;1.48;0.40;;;27.70;51.60;;;;;;6040963;23;20477;-93
2022/10/02 13:00:16;;;;;;;0.30;0.30;;;28.20;44.20;;;;;;6064766;23;20437;-93
2022/10/02 13:03:04;;;;;;;0.30;0.30;;;28.90;43.70;;;;;;6064661;23;20019;-93
2022/10/02 13:06:16;;;;;;;1.20;0.30;;;27.50;44.10;;;;;;6059174;23;20019;-93
2022/10/02 13:08:54;;;;;;;0.50;0.50;;;;;;;;;;6030565;23;20012;-93
2022/10/02 13:11:29;;;;;;;0.30;0.30;;;28.20;53.10;;;;;;6030048;23;20012;-93
2022/10/02 13:13:55;;;;;;;0.32;0.30;;;;;;;;;;6007399;23;20014;-92
2022/10/02 13:16:45;;;;;;;0.20;0.20;;;29.50;42.10;;;;;;6031171;23;20091;-93
2022/10/02 13:19:32;;;;;;;2.72;0.22;;;27.80;54.20;;;;;;6007688;23;20007;-93
2022/10/02 13:22:17;;;;;;;0.38;0.30;;;26.40;52.10;;;;;;6030256;23;20016;-92
2022/10/02 13:24:54;;;;;;;0.32;0.32;;;27.60;57.00;;;;;;6007614;23;20028;-93
2022/10/02 13:27:50;;;;;;;4.80;0.70;;;28.50;48.10;;;;;;5984038;23;20019;-93
2022/10/02 13:30:16;;;;;;;0.90;0.35;;;;;;;;;;6069892;23;20006;-94
2022/10/02 13:32:56;;;;;;;0.60;0.40;;;29.80;42.40;;;;;;6093262;23;20018;-93
2022/10/02 13:35:37;;;;;;;1.63;0.30;;;28.80;44.30;;;;;;6094189;23;20070;-95
2022/10/02 13:38:18;;;;;;;0.80;0.40;;;29.00;53.70;;;;;;6069921;23;20007;-93
2022/10/02 13:41:12;;;;;;;0.40;0.30;;;29.60;41.90;;;;;;6092978;23;20066;-93
2022/10/02 13:43:44;;;;;;;0.30;0.30;;;30.10;41.40;;;;;;6151946;23;20092;-93
2022/10/02 13:46:31;;;;;;;0.35;0.35;;;30.30;41.00;;;;;;6152324;23;20090;-92
2022/10/02 13:49:19;;;;;;;0.30;0.30;;;29.90;43.50;;;;;;6153303;23;20009;-93
2022/10/02 13:52:04;;;;;;;0.20;0.20;;;30.10;40.60;;;;;;6154148;23;20616;-88
2022/10/02 13:55:06;;;;;;;0.30;0.30;;;29.90;41.20;;;;;;6159718;23;20044;-96
2022/10/02 14:01:14;;;;;;;0.30;0.30;;;;;;;;;;6178905;23;20021;-95
2022/10/02 14:07:29;;;;;;;11.00;1.42;;;29.20;42.70;;;;;;6071270;23;20600;-88
2022/10/02 14:09:54;;;;;;;0.30;0.30;;;;;;;;;;6039384;23;20010;-91
2022/10/02 14:12:48;;;;;;;0.90;0.40;;;27.90;44.40;;;;;;6037130;23;20007;-88
2022/10/02 14:15:43;;;;;;;3.80;0.60;;;27.40;50.80;;;;;;6063579;23;20035;-87
2022/10/02 14:18:34;;;;;;;0.40;0.35;;;27.00;45.60;;;;;;6035708;23;20250;-96
2022/10/02 14:21:00;;;;;;;0.47;0.40;;;;;;;;;;6040671;23;20034;-95
2022/10/02 14:23:43;;;;;;;0.40;0.30;;;27.20;44.10;;;;;;6064059;23;20010;-93
2022/10/02 14:26:22;;;;;;;0.52;0.45;;;27.00;44.10;;;;;;6064343;23;20474;-94
2022/10/02 14:28:50;;;;;;;0.30;0.30;;;;;;;;;;6064665;23;20006;-95
2022/10/02 14:31:41;;;;;;;1.65;0.63;;;26.60;44.40;;;;;;6040429;23;20007;-94
2022/10/02 14:34:49;;;;;;;0.30;0.30;;;26.30;44.10;;;;;;6063343;23;20451;-95
2022/10/02 14:37:46;;;;;;;0.30;0.30;;;26.10;44.30;;;;;;6063760;23;20007;-95
2022/10/02 14:40:16;;;;;;;;;;;26.20;44.40;;;;;;6064187;23;20034;-92
2022/10/02 14:42:45;;;;;;;0.40;0.40;;;;;;;;;;6040440;23;19945;-93
2022/10/02 14:45:23;;;;;;;0.43;0.43;;;;;;;;;;6152075;23;20056;-93
2022/10/02 14:48:28;;;;;;;0.68;0.45;;;25.70;56.10;;;;;;6153284;23;20005;-93
2022/10/02 14:51:05;;;;;;;0.40;0.40;;;25.50;45.10;;;;;;6154030;23;20036;-90
2022/10/02 14:53:31;;;;;;;0.85;0.40;;;;;;;;;;6153272;23;20005;-91
2022/10/02 14:55:58;;;;;;;0.70;0.60;;;;;;;;;;6153479;23;20084;-91
2022/10/02 14:58:41;;;;;;;0.40;0.30;;;24.80;46.50;;;;;;6152126;23;19993;-94
2022/10/02 15:01:18;;;;;;;0.30;0.30;;;24.40;48.00;;;;;;6153634;23;20013;-90
2022/10/02 15:04:14;;;;;;;0.32;0.32;;;23.90;49.50;;;;;;6150735;23;20009;-92